Tavistock, Canada
Current Conditions -  °F | °C
As of 1:28 PM on Saturday 25 Oct 2014 (Local Time) from CYKF Reporting Station
Haze Haze  
Wind Chill: 54°   Ceiling: 1200
Heat Index: 54°   Visibility: 6mi
Dew Point: 50°   Wind: 18mph
Humidity: 88%   Direction: 260°W
Pressure: 29.66"   Gusts: 28mph
Location:  43.32°N, 80.83°W
Report Text: CYKF 251728Z AUTO 26016G24KT 6SM BR BKN012 OVC018 12/10 A2966 RMK SLP047 DENSITY ALT 1200FT
Loading
Personal Weather Stations






























Interactive Weather Map
Tropical Storm Tracking
New forecast layout! Learn more

10-Day Weather Forecast

Advertisements
Track Severe Weather on mobile